Terminal Aerodrome Forecast
Issued by NWS Duluth, MN

Home | Current Version | Previous Version | Text Only | Print | Product List | Glossary On
Versions: 1 2 3 4 5 6 7 8 9 10 11 12 13 14 15 16 17 18 19 20 21
000
FTUS43 KDLH 031100
TAFINL
TAF
KINL 031132Z 0312/0412 06004KT P6SM BKN050
     FM031900 03006KT P6SM VCTS SCT025 OVC040CB
     FM040100 VRB03KT 5SM BR VCSH SCT020 BKN050
     FM040400 34004KT P6SM SCT030 BKN060
      TEMPO 0408/0412 3SM BR BKN022=

USA.gov is the U.S. government's official web portal to all federal, state and local government web resources and services.